Terminal Aerodrome Forecast
Issued by NWS Shreveport, LA

Home | Current Version | Previous Version | Text Only | Print | Product List | Glossary On
Versions: 1 2 3 4 5 6 7 8 9 10 11 12 13 14 15 16
000
FTUS44 KSHV 061729
TAFELD
TAF
KELD 061729Z 0618/0718 20010KT P6SM SCT035 SCT250
     FM070000 18005KT P6SM SCT250
      TEMPO 0710/0714 5SM BR BKN005
     FM071400 20008KT P6SM BKN015
     FM071600 20010KT P6SM SCT030 SCT250=

USA.gov is the U.S. government's official web portal to all federal, state and local government web resources and services.